sensor_id;sensor_type;location;lat;lon;timestamp;P1;durP1;ratioP1;P2;durP2;ratioP2
4686;SDS011;2357;47.316;-1.348;2023-04-29T00:00:41;5.43;;;4.50;;
4686;SDS011;2357;47.316;-1.348;2023-04-29T00:03:07;3.97;;;3.67;;
4686;SDS011;2357;47.316;-1.348;2023-04-29T00:05:33;3.80;;;3.50;;
4686;SDS011;2357;47.316;-1.348;2023-04-29T00:08:00;4.90;;;4.20;;
4686;SDS011;2357;47.316;-1.348;2023-04-29T00:10:25;4.87;;;4.47;;
4686;SDS011;2357;47.316;-1.348;2023-04-29T00:12:51;4.50;;;4.10;;
4686;SDS011;2357;47.316;-1.348;2023-04-29T00:15:16;5.30;;;4.77;;
4686;SDS011;2357;47.316;-1.348;2023-04-29T00:17:42;6.40;;;4.90;;
4686;SDS011;2357;47.316;-1.348;2023-04-29T00:20:09;10.37;;;4.97;;
4686;SDS011;2357;47.316;-1.348;2023-04-29T00:22:36;5.23;;;4.80;;
4686;SDS011;2357;47.316;-1.348;2023-04-29T00:25:03;4.43;;;4.13;;
4686;SDS011;2357;47.316;-1.348;2023-04-29T00:27:29;9.07;;;5.00;;
4686;SDS011;2357;47.316;-1.348;2023-04-29T00:29:55;6.40;;;5.37;;
4686;SDS011;2357;47.316;-1.348;2023-04-29T00:32:21;5.87;;;5.37;;
4686;SDS011;2357;47.316;-1.348;2023-04-29T00:34:47;6.67;;;4.50;;
4686;SDS011;2357;47.316;-1.348;2023-04-29T00:37:12;5.83;;;5.33;;
4686;SDS011;2357;47.316;-1.348;2023-04-29T00:39:38;6.00;;;5.50;;
4686;SDS011;2357;47.316;-1.348;2023-04-29T00:42:04;5.53;;;5.03;;
4686;SDS011;2357;47.316;-1.348;2023-04-29T00:44:29;5.73;;;5.27;;
4686;SDS011;2357;47.316;-1.348;2023-04-29T00:46:55;6.10;;;5.00;;
4686;SDS011;2357;47.316;-1.348;2023-04-29T00:49:21;5.23;;;4.83;;
4686;SDS011;2357;47.316;-1.348;2023-04-29T00:51:47;9.70;;;6.33;;
4686;SDS011;2357;47.316;-1.348;2023-04-29T00:54:13;7.03;;;5.70;;
4686;SDS011;2357;47.316;-1.348;2023-04-29T00:56:39;8.00;;;5.87;;
4686;SDS011;2357;47.316;-1.348;2023-04-29T00:59:07;6.07;;;5.30;;
4686;SDS011;2357;47.316;-1.348;2023-04-29T01:01:34;6.60;;;5.90;;
4686;SDS011;2357;47.316;-1.348;2023-04-29T01:04:00;7.57;;;5.80;;
4686;SDS011;2357;47.316;-1.348;2023-04-29T01:12:20;6.10;;;5.53;;
4686;SDS011;2357;47.316;-1.348;2023-04-29T01:15:00;7.40;;;5.90;;
4686;SDS011;2357;47.316;-1.348;2023-04-29T01:18:11;5.93;;;5.43;;
4686;SDS011;2357;47.316;-1.348;2023-04-29T01:20:49;4.73;;;4.43;;
4686;SDS011;2357;47.316;-1.348;2023-04-29T01:23:15;5.60;;;5.10;;
4686;SDS011;2357;47.316;-1.348;2023-04-29T01:25:41;7.23;;;5.07;;
4686;SDS011;2357;47.316;-1.348;2023-04-29T01:28:19;5.63;;;5.07;;
4686;SDS011;2357;47.316;-1.348;2023-04-29T01:31:10;5.90;;;5.40;;
4686;SDS011;2357;47.316;-1.348;2023-04-29T01:34:08;6.90;;;6.07;;
4686;SDS011;2357;47.316;-1.348;2023-04-29T01:36:52;6.90;;;6.40;;
4686;SDS011;2357;47.316;-1.348;2023-04-29T01:43:05;8.27;;;6.27;;
4686;SDS011;2357;47.316;-1.348;2023-04-29T01:45:04;9.37;;;6.27;;
4686;SDS011;2357;47.316;-1.348;2023-04-29T01:47:32;6.27;;;5.63;;
4686;SDS011;2357;47.316;-1.348;2023-04-29T01:49:59;6.30;;;5.80;;
4686;SDS011;2357;47.316;-1.348;2023-04-29T01:52:26;6.87;;;5.27;;
4686;SDS011;2357;47.316;-1.348;2023-04-29T01:54:52;7.53;;;6.50;;
4686;SDS011;2357;47.316;-1.348;2023-04-29T01:57:18;8.60;;;6.03;;
4686;SDS011;2357;47.316;-1.348;2023-04-29T01:59:44;6.20;;;5.60;;
4686;SDS011;2357;47.316;-1.348;2023-04-29T02:02:09;5.80;;;5.20;;
4686;SDS011;2357;47.316;-1.348;2023-04-29T02:04:35;6.63;;;5.80;;
4686;SDS011;2357;47.316;-1.348;2023-04-29T02:07:01;6.63;;;5.07;;
4686;SDS011;2357;47.316;-1.348;2023-04-29T02:09:27;11.47;;;6.33;;
4686;SDS011;2357;47.316;-1.348;2023-04-29T02:11:53;10.73;;;5.10;;
4686;SDS011;2357;47.316;-1.348;2023-04-29T02:14:19;6.40;;;5.40;;
4686;SDS011;2357;47.316;-1.348;2023-04-29T02:16:45;7.93;;;5.33;;
4686;SDS011;2357;47.316;-1.348;2023-04-29T02:19:10;5.47;;;5.03;;
4686;SDS011;2357;47.316;-1.348;2023-04-29T02:21:37;6.43;;;5.80;;
4686;SDS011;2357;47.316;-1.348;2023-04-29T02:24:04;7.33;;;6.23;;
4686;SDS011;2357;47.316;-1.348;2023-04-29T02:26:30;11.33;;;5.80;;
4686;SDS011;2357;47.316;-1.348;2023-04-29T02:28:57;7.23;;;5.60;;
4686;SDS011;2357;47.316;-1.348;2023-04-29T02:31:22;10.23;;;6.40;;
4686;SDS011;2357;47.316;-1.348;2023-04-29T02:33:48;7.83;;;5.47;;
4686;SDS011;2357;47.316;-1.348;2023-04-29T02:36:13;5.70;;;5.13;;
4686;SDS011;2357;47.316;-1.348;2023-04-29T02:38:39;5.43;;;4.67;;
4686;SDS011;2357;47.316;-1.348;2023-04-29T02:41:05;5.30;;;4.80;;
4686;SDS011;2357;47.316;-1.348;2023-04-29T02:43:31;5.50;;;5.00;;
4686;SDS011;2357;47.316;-1.348;2023-04-29T02:45:57;5.10;;;4.63;;
4686;SDS011;2357;47.316;-1.348;2023-04-29T02:48:24;5.17;;;4.07;;
4686;SDS011;2357;47.316;-1.348;2023-04-29T02:50:49;4.83;;;4.40;;
4686;SDS011;2357;47.316;-1.348;2023-04-29T02:53:18;4.13;;;3.80;;
4686;SDS011;2357;47.316;-1.348;2023-04-29T02:55:44;4.17;;;3.77;;
4686;SDS011;2357;47.316;-1.348;2023-04-29T02:58:11;5.17;;;4.73;;
4686;SDS011;2357;47.316;-1.348;2023-04-29T03:00:36;4.70;;;4.30;;
4686;SDS011;2357;47.316;-1.348;2023-04-29T03:03:04;4.53;;;4.20;;
4686;SDS011;2357;47.316;-1.348;2023-04-29T03:05:30;4.13;;;3.83;;
4686;SDS011;2357;47.316;-1.348;2023-04-29T03:07:56;4.43;;;4.03;;
4686;SDS011;2357;47.316;-1.348;2023-04-29T03:10:21;4.60;;;4.20;;
4686;SDS011;2357;47.316;-1.348;2023-04-29T03:12:47;4.67;;;4.37;;
4686;SDS011;2357;47.316;-1.348;2023-04-29T03:15:12;4.27;;;4.03;;
4686;SDS011;2357;47.316;-1.348;2023-04-29T03:17:39;4.20;;;3.90;;
4686;SDS011;2357;47.316;-1.348;2023-04-29T03:20:05;3.80;;;3.57;;
4686;SDS011;2357;47.316;-1.348;2023-04-29T03:22:31;9.90;;;3.93;;
4686;SDS011;2357;47.316;-1.348;2023-04-29T03:24:57;3.53;;;3.27;;
4686;SDS011;2357;47.316;-1.348;2023-04-29T03:27:23;4.40;;;3.90;;
4686;SDS011;2357;47.316;-1.348;2023-04-29T03:29:48;4.03;;;3.73;;
4686;SDS011;2357;47.316;-1.348;2023-04-29T03:32:14;3.70;;;3.43;;
4686;SDS011;2357;47.316;-1.348;2023-04-29T03:34:40;3.83;;;3.53;;
4686;SDS011;2357;47.316;-1.348;2023-04-29T03:37:05;5.63;;;4.20;;
4686;SDS011;2357;47.316;-1.348;2023-04-29T03:39:31;4.97;;;4.50;;
4686;SDS011;2357;47.316;-1.348;2023-04-29T03:41:57;4.73;;;4.33;;
4686;SDS011;2357;47.316;-1.348;2023-04-29T03:44:23;6.40;;;4.10;;
4686;SDS011;2357;47.316;-1.348;2023-04-29T03:46:50;5.83;;;4.07;;
4686;SDS011;2357;47.316;-1.348;2023-04-29T03:49:15;4.23;;;3.83;;
4686;SDS011;2357;47.316;-1.348;2023-04-29T03:51:41;3.90;;;3.70;;
4686;SDS011;2357;47.316;-1.348;2023-04-29T03:54:09;4.23;;;3.60;;
4686;SDS011;2357;47.316;-1.348;2023-04-29T03:56:35;4.23;;;3.80;;
4686;SDS011;2357;47.316;-1.348;2023-04-29T03:59:01;13.93;;;4.13;;
4686;SDS011;2357;47.316;-1.348;2023-04-29T04:01:26;3.50;;;3.30;;
4686;SDS011;2357;47.316;-1.348;2023-04-29T04:03:52;3.10;;;2.80;;
4686;SDS011;2357;47.316;-1.348;2023-04-29T04:06:17;2.83;;;2.67;;
4686;SDS011;2357;47.316;-1.348;2023-04-29T04:08:43;2.43;;;2.30;;
4686;SDS011;2357;47.316;-1.348;2023-04-29T04:11:09;3.00;;;2.80;;
4686;SDS011;2357;47.316;-1.348;2023-04-29T04:13:34;3.13;;;2.93;;
4686;SDS011;2357;47.316;-1.348;2023-04-29T04:16:01;3.00;;;2.80;;
4686;SDS011;2357;47.316;-1.348;2023-04-29T04:18:27;3.40;;;3.20;;
4686;SDS011;2357;47.316;-1.348;2023-04-29T04:20:53;2.67;;;2.40;;
4686;SDS011;2357;47.316;-1.348;2023-04-29T04:23:18;3.93;;;3.60;;
4686;SDS011;2357;47.316;-1.348;2023-04-29T04:25:47;3.40;;;2.90;;
4686;SDS011;2357;47.316;-1.348;2023-04-29T04:28:13;3.10;;;3.00;;
4686;SDS011;2357;47.316;-1.348;2023-04-29T04:30:39;7.43;;;3.40;;
4686;SDS011;2357;47.316;-1.348;2023-04-29T04:33:05;3.33;;;3.13;;
4686;SDS011;2357;47.316;-1.348;2023-04-29T04:35:31;2.70;;;2.50;;
4686;SDS011;2357;47.316;-1.348;2023-04-29T04:37:57;3.20;;;3.00;;
4686;SDS011;2357;47.316;-1.348;2023-04-29T04:40:23;6.27;;;3.33;;
4686;SDS011;2357;47.316;-1.348;2023-04-29T04:42:48;2.70;;;2.50;;
4686;SDS011;2357;47.316;-1.348;2023-04-29T04:45:14;2.10;;;2.00;;
4686;SDS011;2357;47.316;-1.348;2023-04-29T04:47:40;2.00;;;1.90;;
4686;SDS011;2357;47.316;-1.348;2023-04-29T04:50:06;2.00;;;1.90;;
4686;SDS011;2357;47.316;-1.348;2023-04-29T04:52:32;2.03;;;1.93;;
4686;SDS011;2357;47.316;-1.348;2023-04-29T04:54:58;1.93;;;1.80;;
4686;SDS011;2357;47.316;-1.348;2023-04-29T04:57:24;1.80;;;1.70;;
4686;SDS011;2357;47.316;-1.348;2023-04-29T04:59:50;2.27;;;2.07;;
4686;SDS011;2357;47.316;-1.348;2023-04-29T05:02:15;2.00;;;1.90;;
4686;SDS011;2357;47.316;-1.348;2023-04-29T05:04:41;1.10;;;1.00;;
4686;SDS011;2357;47.316;-1.348;2023-04-29T05:07:07;1.43;;;1.43;;
4686;SDS011;2357;47.316;-1.348;2023-04-29T05:09:32;1.80;;;1.70;;
4686;SDS011;2357;47.316;-1.348;2023-04-29T05:11:58;1.80;;;1.70;;
4686;SDS011;2357;47.316;-1.348;2023-04-29T05:14:24;6.60;;;1.80;;
4686;SDS011;2357;47.316;-1.348;2023-04-29T05:16:50;2.20;;;1.67;;
4686;SDS011;2357;47.316;-1.348;2023-04-29T05:19:17;1.77;;;1.67;;
4686;SDS011;2357;47.316;-1.348;2023-04-29T05:21:43;1.93;;;1.80;;
4686;SDS011;2357;47.316;-1.348;2023-04-29T05:24:08;1.70;;;1.60;;
4686;SDS011;2357;47.316;-1.348;2023-04-29T05:26:34;1.50;;;1.43;;
4686;SDS011;2357;47.316;-1.348;2023-04-29T05:29:00;2.00;;;1.73;;
4686;SDS011;2357;47.316;-1.348;2023-04-29T05:31:25;1.77;;;1.67;;
4686;SDS011;2357;47.316;-1.348;2023-04-29T05:33:52;5.90;;;1.60;;
4686;SDS011;2357;47.316;-1.348;2023-04-29T05:36:17;2.40;;;2.00;;
4686;SDS011;2357;47.316;-1.348;2023-04-29T05:38:44;2.80;;;2.60;;
4686;SDS011;2357;47.316;-1.348;2023-04-29T05:41:10;1.83;;;1.73;;
4686;SDS011;2357;47.316;-1.348;2023-04-29T05:43:35;1.60;;;1.60;;
4686;SDS011;2357;47.316;-1.348;2023-04-29T05:46:01;2.60;;;2.40;;
4686;SDS011;2357;47.316;-1.348;2023-04-29T05:48:27;4.37;;;1.57;;
4686;SDS011;2357;47.316;-1.348;2023-04-29T05:50:53;1.97;;;1.87;;
4686;SDS011;2357;47.316;-1.348;2023-04-29T05:53:19;2.30;;;2.20;;
4686;SDS011;2357;47.316;-1.348;2023-04-29T05:55:45;2.60;;;2.40;;
4686;SDS011;2357;47.316;-1.348;2023-04-29T05:58:11;2.00;;;1.90;;
4686;SDS011;2357;47.316;-1.348;2023-04-29T06:00:37;5.00;;;3.40;;
4686;SDS011;2357;47.316;-1.348;2023-04-29T06:03:03;3.27;;;2.07;;
4686;SDS011;2357;47.316;-1.348;2023-04-29T06:05:29;6.57;;;1.67;;
4686;SDS011;2357;47.316;-1.348;2023-04-29T06:07:54;2.20;;;2.10;;
4686;SDS011;2357;47.316;-1.348;2023-04-29T06:10:20;2.90;;;2.13;;
4686;SDS011;2357;47.316;-1.348;2023-04-29T06:12:45;2.27;;;2.17;;
4686;SDS011;2357;47.316;-1.348;2023-04-29T06:15:14;2.90;;;2.80;;
4686;SDS011;2357;47.316;-1.348;2023-04-29T06:17:40;2.43;;;2.23;;
4686;SDS011;2357;47.316;-1.348;2023-04-29T06:20:06;2.70;;;2.60;;
4686;SDS011;2357;47.316;-1.348;2023-04-29T06:22:33;2.87;;;2.67;;
4686;SDS011;2357;47.316;-1.348;2023-04-29T06:24:58;2.63;;;2.50;;
4686;SDS011;2357;47.316;-1.348;2023-04-29T06:27:24;3.30;;;3.10;;
4686;SDS011;2357;47.316;-1.348;2023-04-29T06:29:49;3.10;;;2.90;;
4686;SDS011;2357;47.316;-1.348;2023-04-29T06:32:15;3.53;;;3.33;;
4686;SDS011;2357;47.316;-1.348;2023-04-29T06:34:41;3.03;;;2.83;;
4686;SDS011;2357;47.316;-1.348;2023-04-29T06:37:06;2.77;;;2.57;;
4686;SDS011;2357;47.316;-1.348;2023-04-29T06:39:32;3.87;;;3.53;;
4686;SDS011;2357;47.316;-1.348;2023-04-29T06:41:58;6.53;;;3.17;;
4686;SDS011;2357;47.316;-1.348;2023-04-29T06:44:23;5.43;;;3.30;;
4686;SDS011;2357;47.316;-1.348;2023-04-29T06:46:49;3.50;;;3.20;;
4686;SDS011;2357;47.316;-1.348;2023-04-29T06:49:15;3.47;;;2.87;;
4686;SDS011;2357;47.316;-1.348;2023-04-29T06:51:41;3.23;;;2.90;;
4686;SDS011;2357;47.316;-1.348;2023-04-29T06:54:07;4.33;;;3.50;;
4686;SDS011;2357;47.316;-1.348;2023-04-29T06:56:32;2.80;;;2.63;;
4686;SDS011;2357;47.316;-1.348;2023-04-29T06:58:58;8.40;;;3.40;;
4686;SDS011;2357;47.316;-1.348;2023-04-29T07:01:24;3.60;;;3.40;;
4686;SDS011;2357;47.316;-1.348;2023-04-29T07:03:49;2.67;;;2.53;;
4686;SDS011;2357;47.316;-1.348;2023-04-29T07:06:15;6.43;;;2.70;;
4686;SDS011;2357;47.316;-1.348;2023-04-29T07:08:41;4.70;;;3.20;;
4686;SDS011;2357;47.316;-1.348;2023-04-29T07:11:06;5.30;;;3.50;;
4686;SDS011;2357;47.316;-1.348;2023-04-29T07:13:32;2.80;;;2.60;;
4686;SDS011;2357;47.316;-1.348;2023-04-29T07:15:57;3.00;;;2.90;;
4686;SDS011;2357;47.316;-1.348;2023-04-29T07:18:23;4.60;;;3.30;;
4686;SDS011;2357;47.316;-1.348;2023-04-29T07:20:48;2.90;;;2.67;;
4686;SDS011;2357;47.316;-1.348;2023-04-29T07:23:16;3.67;;;3.43;;
4686;SDS011;2357;47.316;-1.348;2023-04-29T07:25:42;4.77;;;3.97;;
4686;SDS011;2357;47.316;-1.348;2023-04-29T07:28:07;5.50;;;4.03;;
4686;SDS011;2357;47.316;-1.348;2023-04-29T07:30:33;4.80;;;3.80;;
4686;SDS011;2357;47.316;-1.348;2023-04-29T07:32:59;6.37;;;5.10;;
4686;SDS011;2357;47.316;-1.348;2023-04-29T07:35:25;4.50;;;3.67;;
4686;SDS011;2357;47.316;-1.348;2023-04-29T07:37:50;4.23;;;3.33;;
4686;SDS011;2357;47.316;-1.348;2023-04-29T07:40:16;5.43;;;3.80;;
4686;SDS011;2357;47.316;-1.348;2023-04-29T07:42:42;9.63;;;3.00;;
4686;SDS011;2357;47.316;-1.348;2023-04-29T07:45:08;3.57;;;2.90;;
4686;SDS011;2357;47.316;-1.348;2023-04-29T07:47:34;5.53;;;3.13;;
4686;SDS011;2357;47.316;-1.348;2023-04-29T07:50:00;3.43;;;3.10;;
4686;SDS011;2357;47.316;-1.348;2023-04-29T07:52:25;4.83;;;3.43;;
4686;SDS011;2357;47.316;-1.348;2023-04-29T07:54:51;6.27;;;3.80;;
4686;SDS011;2357;47.316;-1.348;2023-04-29T07:57:19;6.17;;;3.83;;
4686;SDS011;2357;47.316;-1.348;2023-04-29T07:59:45;5.57;;;3.70;;
4686;SDS011;2357;47.316;-1.348;2023-04-29T08:02:10;3.87;;;3.40;;
4686;SDS011;2357;47.316;-1.348;2023-04-29T08:04:38;10.07;;;4.20;;
4686;SDS011;2357;47.316;-1.348;2023-04-29T08:07:05;7.90;;;3.60;;
4686;SDS011;2357;47.316;-1.348;2023-04-29T08:09:30;4.77;;;2.83;;
4686;SDS011;2357;47.316;-1.348;2023-04-29T08:11:56;5.13;;;3.43;;
4686;SDS011;2357;47.316;-1.348;2023-04-29T08:14:22;5.33;;;3.10;;
4686;SDS011;2357;47.316;-1.348;2023-04-29T08:16:47;4.07;;;3.43;;
4686;SDS011;2357;47.316;-1.348;2023-04-29T08:19:13;3.33;;;2.70;;
4686;SDS011;2357;47.316;-1.348;2023-04-29T08:21:39;2.60;;;2.40;;
4686;SDS011;2357;47.316;-1.348;2023-04-29T08:24:05;3.13;;;2.10;;
4686;SDS011;2357;47.316;-1.348;2023-04-29T08:26:31;2.80;;;2.03;;
4686;SDS011;2357;47.316;-1.348;2023-04-29T08:28:56;4.50;;;1.90;;
4686;SDS011;2357;47.316;-1.348;2023-04-29T08:31:22;2.07;;;1.97;;
4686;SDS011;2357;47.316;-1.348;2023-04-29T08:33:48;1.60;;;1.50;;
4686;SDS011;2357;47.316;-1.348;2023-04-29T08:36:13;2.20;;;2.10;;
4686;SDS011;2357;47.316;-1.348;2023-04-29T08:38:39;2.17;;;2.00;;
4686;SDS011;2357;47.316;-1.348;2023-04-29T08:41:08;2.23;;;2.13;;
4686;SDS011;2357;47.316;-1.348;2023-04-29T08:43:34;2.90;;;2.43;;
4686;SDS011;2357;47.316;-1.348;2023-04-29T08:46:04;2.73;;;2.50;;
4686;SDS011;2357;47.316;-1.348;2023-04-29T08:48:30;2.17;;;2.03;;
4686;SDS011;2357;47.316;-1.348;2023-04-29T08:50:56;2.27;;;2.17;;
4686;SDS011;2357;47.316;-1.348;2023-04-29T08:53:23;2.23;;;2.13;;
4686;SDS011;2357;47.316;-1.348;2023-04-29T08:55:49;2.40;;;2.30;;
4686;SDS011;2357;47.316;-1.348;2023-04-29T08:58:16;1.90;;;1.80;;
4686;SDS011;2357;47.316;-1.348;2023-04-29T09:00:42;2.23;;;2.03;;
4686;SDS011;2357;47.316;-1.348;2023-04-29T09:03:13;2.40;;;2.30;;
4686;SDS011;2357;47.316;-1.348;2023-04-29T09:05:52;2.93;;;2.73;;
4686;SDS011;2357;47.316;-1.348;2023-04-29T09:08:20;4.10;;;2.33;;
4686;SDS011;2357;47.316;-1.348;2023-04-29T09:10:47;3.00;;;2.70;;
4686;SDS011;2357;47.316;-1.348;2023-04-29T09:13:24;2.33;;;2.13;;
4686;SDS011;2357;47.316;-1.348;2023-04-29T09:15:50;2.33;;;2.13;;
4686;SDS011;2357;47.316;-1.348;2023-04-29T09:21:17;2.83;;;2.63;;
4686;SDS011;2357;47.316;-1.348;2023-04-29T09:23:48;2.63;;;2.50;;
4686;SDS011;2357;47.316;-1.348;2023-04-29T09:26:18;4.00;;;2.73;;
4686;SDS011;2357;47.316;-1.348;2023-04-29T09:28:45;1.87;;;1.73;;
4686;SDS011;2357;47.316;-1.348;2023-04-29T09:31:11;2.30;;;2.20;;
4686;SDS011;2357;47.316;-1.348;2023-04-29T09:33:51;2.53;;;2.43;;
4686;SDS011;2357;47.316;-1.348;2023-04-29T09:36:37;2.00;;;1.80;;
4686;SDS011;2357;47.316;-1.348;2023-04-29T09:39:13;2.33;;;2.20;;
4686;SDS011;2357;47.316;-1.348;2023-04-29T09:44:16;2.40;;;2.20;;
4686;SDS011;2357;47.316;-1.348;2023-04-29T09:47:09;2.73;;;2.47;;
4686;SDS011;2357;47.316;-1.348;2023-04-29T09:49:40;1.90;;;1.80;;
4686;SDS011;2357;47.316;-1.348;2023-04-29T09:52:13;3.87;;;3.20;;
4686;SDS011;2357;47.316;-1.348;2023-04-29T09:54:44;3.10;;;2.90;;
4686;SDS011;2357;47.316;-1.348;2023-04-29T09:57:11;2.50;;;2.40;;
4686;SDS011;2357;47.316;-1.348;2023-04-29T09:59:39;2.53;;;2.37;;
4686;SDS011;2357;47.316;-1.348;2023-04-29T10:02:06;3.40;;;2.90;;
4686;SDS011;2357;47.316;-1.348;2023-04-29T10:04:35;3.80;;;3.40;;
4686;SDS011;2357;47.316;-1.348;2023-04-29T10:07:04;3.50;;;3.20;;
4686;SDS011;2357;47.316;-1.348;2023-04-29T10:09:30;3.03;;;2.83;;
4686;SDS011;2357;47.316;-1.348;2023-04-29T10:11:56;4.17;;;3.77;;
4686;SDS011;2357;47.316;-1.348;2023-04-29T10:14:22;5.20;;;3.57;;
4686;SDS011;2357;47.316;-1.348;2023-04-29T10:19:24;3.30;;;3.10;;
4686;SDS011;2357;47.316;-1.348;2023-04-29T10:21:53;3.80;;;3.50;;
4686;SDS011;2357;47.316;-1.348;2023-04-29T10:24:22;3.57;;;3.33;;
4686;SDS011;2357;47.316;-1.348;2023-04-29T10:26:50;3.70;;;3.40;;
4686;SDS011;2357;47.316;-1.348;2023-04-29T10:29:17;4.07;;;3.63;;
4686;SDS011;2357;47.316;-1.348;2023-04-29T10:31:45;3.63;;;3.33;;
4686;SDS011;2357;47.316;-1.348;2023-04-29T10:34:12;5.70;;;4.80;;
4686;SDS011;2357;47.316;-1.348;2023-04-29T10:36:40;5.47;;;4.80;;
4686;SDS011;2357;47.316;-1.348;2023-04-29T10:39:08;4.67;;;4.27;;
4686;SDS011;2357;47.316;-1.348;2023-04-29T10:41:44;4.53;;;4.13;;
4686;SDS011;2357;47.316;-1.348;2023-04-29T10:44:11;10.00;;;4.37;;
4686;SDS011;2357;47.316;-1.348;2023-04-29T10:46:37;4.93;;;4.40;;
4686;SDS011;2357;47.316;-1.348;2023-04-29T10:49:03;4.73;;;4.27;;
4686;SDS011;2357;47.316;-1.348;2023-04-29T10:51:34;4.87;;;4.37;;
4686;SDS011;2357;47.316;-1.348;2023-04-29T10:54:08;4.33;;;4.00;;
4686;SDS011;2357;47.316;-1.348;2023-04-29T10:59:10;4.23;;;3.93;;
4686;SDS011;2357;47.316;-1.348;2023-04-29T11:01:42;6.70;;;4.40;;
4686;SDS011;2357;47.316;-1.348;2023-04-29T11:04:11;14.27;;;5.40;;
4686;SDS011;2357;47.316;-1.348;2023-04-29T11:06:39;6.80;;;4.70;;
4686;SDS011;2357;47.316;-1.348;2023-04-29T11:09:09;4.73;;;4.07;;
4686;SDS011;2357;47.316;-1.348;2023-04-29T11:17:01;7.50;;;4.10;;
4686;SDS011;2357;47.316;-1.348;2023-04-29T11:19:32;5.30;;;4.17;;
4686;SDS011;2357;47.316;-1.348;2023-04-29T11:22:02;6.73;;;4.33;;
4686;SDS011;2357;47.316;-1.348;2023-04-29T11:24:33;4.40;;;4.10;;
4686;SDS011;2357;47.316;-1.348;2023-04-29T11:27:01;4.03;;;3.73;;
4686;SDS011;2357;47.316;-1.348;2023-04-29T11:29:29;4.60;;;4.27;;
4686;SDS011;2357;47.316;-1.348;2023-04-29T11:32:00;6.73;;;3.80;;
4686;SDS011;2357;47.316;-1.348;2023-04-29T11:34:26;3.90;;;3.60;;
4686;SDS011;2357;47.316;-1.348;2023-04-29T11:36:52;4.73;;;4.43;;
4686;SDS011;2357;47.316;-1.348;2023-04-29T11:39:18;4.67;;;4.27;;
4686;SDS011;2357;47.316;-1.348;2023-04-29T11:41:43;4.40;;;4.10;;
4686;SDS011;2357;47.316;-1.348;2023-04-29T11:44:10;5.10;;;3.90;;
4686;SDS011;2357;47.316;-1.348;2023-04-29T11:46:36;5.00;;;4.50;;
4686;SDS011;2357;47.316;-1.348;2023-04-29T11:49:02;4.40;;;4.00;;
4686;SDS011;2357;47.316;-1.348;2023-04-29T11:51:27;3.90;;;3.60;;
4686;SDS011;2357;47.316;-1.348;2023-04-29T11:53:53;4.40;;;4.00;;
4686;SDS011;2357;47.316;-1.348;2023-04-29T11:56:21;6.20;;;4.60;;
4686;SDS011;2357;47.316;-1.348;2023-04-29T11:58:53;4.23;;;3.83;;
4686;SDS011;2357;47.316;-1.348;2023-04-29T12:01:20;4.13;;;3.83;;
4686;SDS011;2357;47.316;-1.348;2023-04-29T12:03:47;3.70;;;3.40;;
4686;SDS011;2357;47.316;-1.348;2023-04-29T12:06:14;3.83;;;3.40;;
4686;SDS011;2357;47.316;-1.348;2023-04-29T12:08:40;4.50;;;4.20;;
4686;SDS011;2357;47.316;-1.348;2023-04-29T12:11:06;7.50;;;6.17;;
4686;SDS011;2357;47.316;-1.348;2023-04-29T12:13:32;5.13;;;4.47;;
4686;SDS011;2357;47.316;-1.348;2023-04-29T12:16:00;4.90;;;4.50;;
4686;SDS011;2357;47.316;-1.348;2023-04-29T12:18:27;5.60;;;5.10;;
4686;SDS011;2357;47.316;-1.348;2023-04-29T12:20:54;5.30;;;4.87;;
4686;SDS011;2357;47.316;-1.348;2023-04-29T12:23:21;3.57;;;3.30;;
4686;SDS011;2357;47.316;-1.348;2023-04-29T12:28:16;3.93;;;3.60;;
4686;SDS011;2357;47.316;-1.348;2023-04-29T12:30:48;5.53;;;3.33;;
4686;SDS011;2357;47.316;-1.348;2023-04-29T12:33:17;3.73;;;3.53;;
4686;SDS011;2357;47.316;-1.348;2023-04-29T12:35:49;4.07;;;3.77;;
4686;SDS011;2357;47.316;-1.348;2023-04-29T12:38:28;4.17;;;3.87;;
4686;SDS011;2357;47.316;-1.348;2023-04-29T12:40:59;7.60;;;4.03;;
4686;SDS011;2357;47.316;-1.348;2023-04-29T12:43:30;3.70;;;3.40;;
4686;SDS011;2357;47.316;-1.348;2023-04-29T12:46:04;4.40;;;4.10;;
4686;SDS011;2357;47.316;-1.348;2023-04-29T12:48:32;4.87;;;3.50;;
4686;SDS011;2357;47.316;-1.348;2023-04-29T12:51:10;8.20;;;4.30;;
4686;SDS011;2357;47.316;-1.348;2023-04-29T12:53:36;3.87;;;3.40;;
4686;SDS011;2357;47.316;-1.348;2023-04-29T12:56:03;4.83;;;4.20;;
4686;SDS011;2357;47.316;-1.348;2023-04-29T12:58:30;4.60;;;4.20;;
4686;SDS011;2357;47.316;-1.348;2023-04-29T13:00:57;6.57;;;4.97;;
4686;SDS011;2357;47.316;-1.348;2023-04-29T13:03:22;4.40;;;3.93;;
4686;SDS011;2357;47.316;-1.348;2023-04-29T13:05:48;3.73;;;3.53;;
4686;SDS011;2357;47.316;-1.348;2023-04-29T13:08:17;3.60;;;3.40;;
4686;SDS011;2357;47.316;-1.348;2023-04-29T13:10:43;4.50;;;4.20;;
4686;SDS011;2357;47.316;-1.348;2023-04-29T13:13:09;4.63;;;4.23;;
4686;SDS011;2357;47.316;-1.348;2023-04-29T13:15:35;4.00;;;3.70;;
4686;SDS011;2357;47.316;-1.348;2023-04-29T13:18:03;4.03;;;3.73;;
4686;SDS011;2357;47.316;-1.348;2023-04-29T13:20:29;4.00;;;3.60;;
4686;SDS011;2357;47.316;-1.348;2023-04-29T13:22:54;4.00;;;3.70;;
4686;SDS011;2357;47.316;-1.348;2023-04-29T13:25:20;4.10;;;3.80;;
4686;SDS011;2357;47.316;-1.348;2023-04-29T13:27:46;4.33;;;4.03;;
4686;SDS011;2357;47.316;-1.348;2023-04-29T13:30:11;9.80;;;4.07;;
4686;SDS011;2357;47.316;-1.348;2023-04-29T13:32:37;5.00;;;4.23;;
4686;SDS011;2357;47.316;-1.348;2023-04-29T13:35:04;3.70;;;3.50;;
4686;SDS011;2357;47.316;-1.348;2023-04-29T13:37:31;4.10;;;3.80;;
4686;SDS011;2357;47.316;-1.348;2023-04-29T13:39:56;4.30;;;3.93;;
4686;SDS011;2357;47.316;-1.348;2023-04-29T13:42:22;4.17;;;3.73;;
4686;SDS011;2357;47.316;-1.348;2023-04-29T13:44:48;5.23;;;4.40;;
4686;SDS011;2357;47.316;-1.348;2023-04-29T13:47:14;4.77;;;4.37;;
4686;SDS011;2357;47.316;-1.348;2023-04-29T13:49:41;6.37;;;4.37;;
4686;SDS011;2357;47.316;-1.348;2023-04-29T13:52:10;4.13;;;3.83;;
4686;SDS011;2357;47.316;-1.348;2023-04-29T13:54:36;6.70;;;4.40;;
4686;SDS011;2357;47.316;-1.348;2023-04-29T13:57:02;4.57;;;4.27;;
4686;SDS011;2357;47.316;-1.348;2023-04-29T13:59:32;7.23;;;4.80;;
4686;SDS011;2357;47.316;-1.348;2023-04-29T14:01:59;5.17;;;4.50;;
4686;SDS011;2357;47.316;-1.348;2023-04-29T14:04:25;4.57;;;4.03;;
4686;SDS011;2357;47.316;-1.348;2023-04-29T14:06:52;3.97;;;3.67;;
4686;SDS011;2357;47.316;-1.348;2023-04-29T14:09:18;4.03;;;3.73;;
4686;SDS011;2357;47.316;-1.348;2023-04-29T14:11:48;4.47;;;4.07;;
4686;SDS011;2357;47.316;-1.348;2023-04-29T14:14:14;5.87;;;4.60;;
4686;SDS011;2357;47.316;-1.348;2023-04-29T14:16:40;4.97;;;4.30;;
4686;SDS011;2357;47.316;-1.348;2023-04-29T14:19:06;4.20;;;3.90;;
4686;SDS011;2357;47.316;-1.348;2023-04-29T14:21:32;4.50;;;4.20;;
4686;SDS011;2357;47.316;-1.348;2023-04-29T14:23:59;6.37;;;4.00;;
4686;SDS011;2357;47.316;-1.348;2023-04-29T14:26:26;4.50;;;4.10;;
4686;SDS011;2357;47.316;-1.348;2023-04-29T14:28:53;4.90;;;4.50;;
4686;SDS011;2357;47.316;-1.348;2023-04-29T14:31:23;7.17;;;4.70;;
4686;SDS011;2357;47.316;-1.348;2023-04-29T14:33:49;4.40;;;4.00;;
4686;SDS011;2357;47.316;-1.348;2023-04-29T14:36:15;5.47;;;5.07;;
4686;SDS011;2357;47.316;-1.348;2023-04-29T14:38:41;5.07;;;4.50;;
4686;SDS011;2357;47.316;-1.348;2023-04-29T14:41:06;5.63;;;4.90;;
4686;SDS011;2357;47.316;-1.348;2023-04-29T14:43:32;5.27;;;4.80;;
4686;SDS011;2357;47.316;-1.348;2023-04-29T14:45:59;5.00;;;4.67;;
4686;SDS011;2357;47.316;-1.348;2023-04-29T14:48:24;7.00;;;4.87;;
4686;SDS011;2357;47.316;-1.348;2023-04-29T14:50:50;6.17;;;4.50;;
4686;SDS011;2357;47.316;-1.348;2023-04-29T14:53:16;5.57;;;5.07;;
4686;SDS011;2357;47.316;-1.348;2023-04-29T14:55:41;4.60;;;4.17;;
4686;SDS011;2357;47.316;-1.348;2023-04-29T14:58:07;5.40;;;4.90;;
4686;SDS011;2357;47.316;-1.348;2023-04-29T15:00:34;5.43;;;5.03;;
4686;SDS011;2357;47.316;-1.348;2023-04-29T15:03:00;4.90;;;4.50;;
4686;SDS011;2357;47.316;-1.348;2023-04-29T15:05:25;5.10;;;4.20;;
4686;SDS011;2357;47.316;-1.348;2023-04-29T15:07:51;5.50;;;5.10;;
4686;SDS011;2357;47.316;-1.348;2023-04-29T15:10:17;5.30;;;4.77;;
4686;SDS011;2357;47.316;-1.348;2023-04-29T15:12:43;6.27;;;5.10;;
4686;SDS011;2357;47.316;-1.348;2023-04-29T15:15:08;7.67;;;5.07;;
4686;SDS011;2357;47.316;-1.348;2023-04-29T15:17:34;4.80;;;4.50;;
4686;SDS011;2357;47.316;-1.348;2023-04-29T15:20:00;7.67;;;5.43;;
4686;SDS011;2357;47.316;-1.348;2023-04-29T15:22:25;6.27;;;5.53;;
4686;SDS011;2357;47.316;-1.348;2023-04-29T15:24:51;4.90;;;4.50;;
4686;SDS011;2357;47.316;-1.348;2023-04-29T15:27:17;4.37;;;3.93;;